Kimberly, WI

1:58 PM CDT on May 27, 2015 (GMT -0500)
Austin Straubel International | | Change Station
CLOSE
Current Station
Airport
Location: Green Bay,
Elevation: 686 ft
Nearby Weather Stations

Elev 686 ft 44.48 °N, 88.14 °W | Updated 1 hour ago

Mostly Cloudy
Mostly Cloudy
66 °F
Feels Like 66 °F
N
9
Wind Variable Wind from WSW

Today
High -- | Low -- °F
--% Chance of Precip.
Yesterday
High -- | Low -- °F
Precip. -- in
5:15 AM 8:25 PM
Waxing Gibbous, 69% visible
Pressure 29.93 in
Visibility 10.0 miles
Clouds Few 5500 ft
Few 8500 ft
Scattered Clouds 11000 ft
Dew Point 59 °F
Humidity 78%
Rainfall 0.04 in
Snow Depth Not available.
UV 9 out of 12
Pollen 2.70 out of 12
Air Quality Not available.
Flu Activity Sporadic
METAR KGRB 271753Z 25008KT 10SM FEW055 FEW085 SCT110 19/15 A2993 RMK AO2 RAE19 SLP135 P0000 60004 T01890150 10189 20150 51017

More Conditions Fewer Conditions

Pressure 29.93 in
Visibility 10.0 miles
Clouds Few 5500 ft
Few 8500 ft
Scattered Clouds 11000 ft
Dew Point 59 °F
Humidity 78%
Rainfall 0.04 in
Snow Depth Not available.
UV 9 out of 12
Pollen 2.70 out of 12
Air Quality Not available.
Flu Activity Sporadic
METAR KGRB 271753Z 25008KT 10SM FEW055 FEW085 SCT110 19/15 A2993 RMK AO2 RAE19 SLP135 P0000 60004 T01890150 10189 20150 51017

More Conditions Fewer Conditions

10-Day Weather Forecast

Almanac

Astronomy

May. 27, 2015 Rise Set
Actual Time
Civil Twilight
Nautical Twilight
Astronomical Twilight
Moon
Length of Visible Light
Length of Day
Tomorrow will be .
, % of the Moon is Illuminated

Today's Extremes

State Highs State Lows

Community

WunderPhotos

Upload Photos

1,824,757 photos uploaded!

WunderBlogs® & News

Nearby

Air Quality

  Air Quality AQ Index Pollutant
Not available.

Snow Depth

Station Depth Elevation

Earthquake Activity

City Distance Mag. Time & Date
Minimum magnitude displayed is 2.5.

Coastal Water Temperatures

Place Temperature

Stations

Nearby Weather Stations

Station Location Temp. Windchill Dew Point Humidity Wind Precip. Elev Updated Type